Observation data for Childress on 05/26/2019      Previous  Date  Next       Current Mesonet Observations  Soil Data  Daily Summary Page  Observations in Plain Language
KCXS 260500Z 10011KT 21/19 A2993 RMK A01 T02120187  RH  091%=      5-min Rain = 0
KCXS 260505Z 11012KT 21/19 A2994 RMK A01 T02110188  RH  091%=      5-min Rain = 0
KCXS 260510Z 11012KT 21/19 A2994 RMK A01 T02110188  RH  092%=      5-min Rain = 0
KCXS 260515Z 12012KT 21/19 A2994 RMK A01 T02100188  RH  092%=      5-min Rain = 0
KCXS 260520Z 12013KT 21/19 A2994 RMK A01 T02090188  RH  093%=      5-min Rain = 0
KCXS 260525Z 12013KT 21/19 A2994 RMK A01 T02090189  RH  093%=      5-min Rain = 0
KCXS 260530Z 12012KT 21/19 A2994 RMK A01 T02090190  RH  094%=      5-min Rain = 0
KCXS 260535Z 12013KT 21/19 A2994 RMK A01 T02090191  RH  095%=      5-min Rain = 0
KCXS 260540Z 13014KT 21/19 A2993 RMK A01 T02100192  RH  095%=      5-min Rain = 0
KCXS 260545Z 13014KT 21/19 A2993 RMK A01 T02110193  RH  095%=      5-min Rain = 0
KCXS 260550Z 13013KT 21/19 A2993 RMK A01 T02110194  RH  095%=      5-min Rain = 0
KCXS 260555Z 13014KT 21/19 A2993 RMK A01 T02110194  RH  095%=      5-min Rain = 0
KCXS 260600Z 13014KT 21/19 A2993 RMK A01 T02110194  RH  095%=      5-min Rain = 0
KCXS 260605Z 13014KT 21/19 A2993 RMK A01 T02100193  RH  095%=      5-min Rain = 0
KCXS 260610Z 13014KT 21/19 A2993 RMK A01 T02090193  RH  096%=      5-min Rain = 0
KCXS 260615Z 13014KT 21/19 A2993 RMK A01 T02090193  RH  096%=      5-min Rain = 0
KCXS 260620Z 14013KT 21/19 A2993 RMK A01 T02080193  RH  097%=      5-min Rain = 0
KCXS 260625Z 14012KT 21/19 A2993 RMK A01 T02080193  RH  097%=      5-min Rain = 0
KCXS 260630Z 14012KT 21/19 A2993 RMK A01 T02080194  RH  097%=      5-min Rain = 0
KCXS 260635Z 14014G19KT 21/20 A2993 RMK A01 T02080195  RH  097%=      5-min Rain = 0
KCXS 260640Z 14014KT 21/20 A2993 RMK A01 T02100196  RH  097%=      5-min Rain = 0
KCXS 260645Z 14015KT 21/20 A2993 RMK A01 T02130198  RH  096%=      5-min Rain = 0
KCXS 260650Z 14015G20KT 22/20 A2993 RMK A01 T02160198  RH  095%=      5-min Rain = 0
KCXS 260655Z 14015G20KT 22/20 A2993 RMK A01 T02180198  RH  093%=      5-min Rain = 0
KCXS 260700Z 14016G22KT 22/20 A2992 RMK A01 T02190197  RH  093%=      5-min Rain = 0
KCXS 260705Z 14016G21KT 22/20 A2992 RMK A01 T02200197  RH  092%=      5-min Rain = 0
KCXS 260710Z 14017KT 22/20 A2992 RMK A01 T02200197  RH  092%=      5-min Rain = 0
KCXS 260715Z 15017G22KT 22/20 A2992 RMK A01 T02200197  RH  092%=      5-min Rain = 0
KCXS 260720Z 14017G22KT 22/20 A2992 RMK A01 T02200196  RH  092%=      5-min Rain = 0
KCXS 260725Z 14017G22KT 22/20 A2992 RMK A01 T02200196  RH  091%=      5-min Rain = 0
KCXS 260730Z 14015G20KT 22/20 A2992 RMK A01 T02190196  RH  092%=      5-min Rain = 0
KCXS 260735Z 14013G20KT 22/20 A2992 RMK A01 T02180195  RH  092%=      5-min Rain = 0
KCXS 260740Z 14014KT 22/20 A2993 RMK A01 T02180195  RH  092%=      5-min Rain = 0
KCXS 260745Z 14013KT 22/20 A2993 RMK A01 T02170195  RH  093%=      5-min Rain = 0
KCXS 260750Z 14012KT 22/20 A2993 RMK A01 T02160195  RH  093%=      5-min Rain = 0
KCXS 260755Z 14011G16KT 22/20 A2993 RMK A01 T02150195  RH  093%=      5-min Rain = 0
KCXS 260800Z 14012KT 22/20 A2993 RMK A01 T02150195  RH  093%=      5-min Rain = 0
KCXS 260805Z 14011KT 22/20 A2994 RMK A01 T02150195  RH  093%=      5-min Rain = 0
KCXS 260810Z 14011KT 22/19 A2994 RMK A01 T02150194  RH  093%=      5-min Rain = 0
KCXS 260815Z 14011KT 21/19 A2994 RMK A01 T02140194  RH  094%=      5-min Rain = 0
KCXS 260820Z 15010KT 21/19 A2994 RMK A01 T02130194  RH  094%=      5-min Rain = 0
KCXS 260825Z 15011KT 21/19 A2994 RMK A01 T02130194  RH  094%=      5-min Rain = 0
KCXS 260830Z 14011KT 21/19 A2993 RMK A01 T02130194  RH  094%=      5-min Rain = 0
KCXS 260835Z 14011KT 21/19 A2994 RMK A01 T02130193  RH  094%=      5-min Rain = 0
KCXS 260840Z 14011KT 21/19 A2993 RMK A01 T02130193  RH  094%=      5-min Rain = 0
KCXS 260845Z 14011KT 21/19 A2993 RMK A01 T02130193  RH  093%=      5-min Rain = 0
KCXS 260850Z 14011KT 21/19 A2993 RMK A01 T02120192  RH  093%=      5-min Rain = 0
KCXS 260855Z 14011KT 21/19 A2993 RMK A01 T02120192  RH  093%=      5-min Rain = 0
KCXS 260900Z 14010KT 21/19 A2993 RMK A01 T02110192  RH  094%=      5-min Rain = 0
KCXS 260905Z 15011KT 21/19 A2994 RMK A01 T02100191  RH  094%=      5-min Rain = 0
KCXS 260910Z 14010KT 21/19 A2994 RMK A01 T02100191  RH  094%=      5-min Rain = 0
KCXS 260915Z 14010KT 21/19 A2994 RMK A01 T02090190  RH  094%=      5-min Rain = 0
KCXS 260920Z 14010KT 21/19 A2994 RMK A01 T02090190  RH  094%=      5-min Rain = 0
KCXS 260925Z 14010KT 21/19 A2994 RMK A01 T02090190  RH  094%=      5-min Rain = 0
KCXS 260930Z 15010KT 21/19 A2994 RMK A01 T02080190  RH  094%=      5-min Rain = 0
KCXS 260935Z 15010KT 21/19 A2994 RMK A01 T02080189  RH  094%=      5-min Rain = 0
KCXS 260940Z 14010KT 21/19 A2994 RMK A01 T02080189  RH  094%=      5-min Rain = 0
KCXS 260945Z 14009KT 21/19 A2994 RMK A01 T02070189  RH  094%=      5-min Rain = 0
KCXS 260950Z 14009KT 21/19 A2994 RMK A01 T02060189  RH  094%=      5-min Rain = 0
KCXS 260955Z 15008KT 21/19 A2995 RMK A01 T02060188  RH  095%=      5-min Rain = 0
KCXS 261000Z 14009KT 21/19 A2995 RMK A01 T02060188  RH  095%=      5-min Rain = 0
KCXS 261005Z 14009KT 21/19 A2995 RMK A01 T02060188  RH  095%=      5-min Rain = 0
KCXS 261010Z 14009KT 21/19 A2995 RMK A01 T02060188  RH  095%=      5-min Rain = 0
KCXS 261015Z 14009KT 21/19 A2995 RMK A01 T02050188  RH  095%=      5-min Rain = 0
KCXS 261020Z 14010KT 21/19 A2995 RMK A01 T02050188  RH  095%=      5-min Rain = 0
KCXS 261025Z 14009KT 21/19 A2995 RMK A01 T02060189  RH  095%=      5-min Rain = 0
KCXS 261030Z 14009KT 21/19 A2996 RMK A01 T02070189  RH  095%=      5-min Rain = 0
KCXS 261035Z 14009KT 21/19 A2996 RMK A01 T02070189  RH  094%=      5-min Rain = 0
KCXS 261040Z 14008KT 21/19 A2996 RMK A01 T02070189  RH  094%=      5-min Rain = 0
KCXS 261045Z 13009KT 21/19 A2996 RMK A01 T02070189  RH  094%=      5-min Rain = 0
KCXS 261050Z 13009KT 21/19 A2997 RMK A01 T02070189  RH  095%=      5-min Rain = 0
KCXS 261055Z 13009KT 21/19 A2997 RMK A01 T02070189  RH  095%=      5-min Rain = 0
KCXS 261100Z 13009KT 21/19 A2997 RMK A01 T02060189  RH  095%=      5-min Rain = 0
KCXS 261105Z 13009KT 21/19 A2997 RMK A01 T02060189  RH  095%=      5-min Rain = 0
KCXS 261110Z 13009KT 21/19 A2997 RMK A01 T02060189  RH  095%=      5-min Rain = 0
KCXS 261115Z 13009KT 21/19 A2997 RMK A01 T02060189  RH  095%=      5-min Rain = 0
KCXS 261120Z 13010KT 21/19 A2997 RMK A01 T02050188  RH  095%=      5-min Rain = 0
KCXS 261125Z 13010KT 21/19 A2997 RMK A01 T02050188  RH  095%=      5-min Rain = 0
KCXS 261130Z 13009KT 21/19 A2997 RMK A01 T02050188  RH  095%=      5-min Rain = 0
KCXS 261135Z 13010KT 21/19 A2997 RMK A01 T02050188  RH  095%=      5-min Rain = 0
KCXS 261140Z 13010KT 21/19 A2998 RMK A01 T02050188  RH  095%=      5-min Rain = 0
KCXS 261145Z 13010KT 21/19 A2998 RMK A01 T02050188  RH  095%=      5-min Rain = 0
KCXS 261150Z 13009KT 21/19 A2998 RMK A01 T02050188  RH  095%=      5-min Rain = 0
KCXS 261155Z 13010KT 21/19 A2998 RMK A01 T02050188  RH  095%=      5-min Rain = 0
KCXS 261200Z 13009KT 21/19 A2998 RMK A01 T02050188  RH  095%=      5-min Rain = 0
KCXS 261205Z 14009KT 21/19 A2999 RMK A01 T02050188  RH  095%=      5-min Rain = 0
KCXS 261210Z 14010G15KT 21/19 A2999 RMK A01 T02050188  RH  095%=      5-min Rain = 0
KCXS 261215Z 14011KT 21/19 A2999 RMK A01 T02050188  RH  095%=      5-min Rain = 0
KCXS 261220Z 14011KT 21/19 A2999 RMK A01 T02060187  RH  094%=      5-min Rain = 0
KCXS 261225Z 14012KT 21/19 A30 RMK A01 T02060187  RH  094%=      5-min Rain = 0
KCXS 261230Z 14012G17KT 21/19 A30 RMK A01 T02060187  RH  094%=      5-min Rain = 0
KCXS 261235Z 14013KT 21/19 A30 RMK A01 T02060187  RH  094%=      5-min Rain = 0
KCXS 261240Z 14013KT 21/19 A30 RMK A01 T02070187  RH  093%=      5-min Rain = 0
KCXS 261245Z 14012KT 21/19 A3001 RMK A01 T02070186  RH  093%=      5-min Rain = 0
KCXS 261250Z 14011G16KT 21/19 A3001 RMK A01 T02070186  RH  093%=      5-min Rain = 0
KCXS 261255Z 14013KT 21/19 A3001 RMK A01 T02070186  RH  093%=      5-min Rain = 0
KCXS 261300Z 14012G17KT 21/19 A3001 RMK A01 T02070186  RH  092%=      5-min Rain = 0
KCXS 261305Z 14013G18KT 21/19 A3001 RMK A01 T02070186  RH  092%=      5-min Rain = 0
KCXS 261310Z 15013G18KT 21/19 A3001 RMK A01 T02080186  RH  092%=      5-min Rain = 0
KCXS 261315Z 15013KT 21/19 A3001 RMK A01 T02080186  RH  092%=      5-min Rain = 0
KCXS 261320Z 15013G19KT 21/19 A3002 RMK A01 T02090186  RH  091%=      5-min Rain = 0
KCXS 261325Z 14012KT 21/19 A3002 RMK A01 T02090186  RH  092%=      5-min Rain = 0
KCXS 261330Z 15012KT 21/19 A3002 RMK A01 T02090186  RH  092%=      5-min Rain = 0
KCXS 261335Z 15013G18KT 21/19 A3002 RMK A01 T02090185  RH  091%=      5-min Rain = 0
KCXS 261340Z 15010KT 21/19 A3002 RMK A01 T02090186  RH  091%=      5-min Rain = 0
KCXS 261345Z 15011KT 21/19 A3002 RMK A01 T02090186  RH  091%=      5-min Rain = 0
KCXS 261350Z 15010KT 21/19 A3002 RMK A01 T02090186  RH  091%=      5-min Rain = 0
KCXS 261355Z 15011G16KT 21/19 A3002 RMK A01 T02090186  RH  091%=      5-min Rain = 0
KCXS 261400Z 15012KT 21/19 A3002 RMK A01 T02090186  RH  091%=      5-min Rain = 0
KCXS 261405Z 15012KT 21/19 A3001 RMK A01 T02090186  RH  092%=      5-min Rain = 0
KCXS 261410Z 15010G15KT 21/19 A3002 RMK A01 T02080187  RH  092%=      5-min Rain = 0
KCXS 261415Z 15013G18KT 21/19 A3002 RMK A01 T02080186  RH  092%=      5-min Rain = 0
KCXS 261420Z 15012KT 21/19 A3002 RMK A01 T02070186  RH  092%=      5-min Rain = 0
KCXS 261425Z 15011KT 21/19 A3002 RMK A01 T02070187  RH  093%=      5-min Rain = 0
KCXS 261430Z 16010KT 21/19 A3002 RMK A01 T02070186  RH  093%=      5-min Rain = 0
KCXS 261435Z 16011G16KT 21/19 A3002 RMK A01 T02070187  RH  093%=      5-min Rain = 0
KCXS 261440Z 15011KT 21/19 A3002 RMK A01 T02080186  RH  092%=      5-min Rain = 0
KCXS 261445Z 17010KT 21/19 A3002 RMK A01 T02100187  RH  091%=      5-min Rain = 0
KCXS 261450Z 16012G17KT 21/19 A3002 RMK A01 T02130187  RH  090%=      5-min Rain = 0
KCXS 261455Z 16014G19KT 22/18 A3002 RMK A01 T02150184  RH  087%=      5-min Rain = 0
KCXS 261500Z 16011KT 22/19 A3002 RMK A01 T02170186  RH  087%=      5-min Rain = 0
KCXS 261505Z 16012G19KT 22/19 A3002 RMK A01 T02190186  RH  086%=      5-min Rain = 0
KCXS 261510Z 16012G17KT 22/19 A3002 RMK A01 T02210186  RH  085%=      5-min Rain = 0
KCXS 261515Z 16014KT 22/19 A3002 RMK A01 T02230186  RH  084%=      5-min Rain = 0
KCXS 261520Z 16013G18KT 22/19 A3002 RMK A01 T02230185  RH  084%=      5-min Rain = 0
KCXS 261525Z 16014G20KT 22/19 A3002 RMK A01 T02230185  RH  084%=      5-min Rain = 0
KCXS 261530Z 16015KT 22/18 A3002 RMK A01 T02210184  RH  084%=      5-min Rain = 0
KCXS 261535Z 16014G19KT 22/18 A3002 RMK A01 T02200184  RH  084%=      5-min Rain = 0
KCXS 261540Z 16011KT 22/19 A3002 RMK A01 T02210185  RH  085%=      5-min Rain = 0
KCXS 261545Z 16012KT 22/19 A3002 RMK A01 T02220185  RH  084%=      5-min Rain = 0
KCXS 261550Z 16014G19KT 22/18 A3002 RMK A01 T02230184  RH  083%=      5-min Rain = 0
KCXS 261555Z 16012KT 22/18 A3002 RMK A01 T02230184  RH  083%=      5-min Rain = 0
KCXS 261600Z 16012G18KT 22/19 A3002 RMK A01 T02240185  RH  083%=      5-min Rain = 0
KCXS 261605Z 16013KT 23/18 A3001 RMK A01 T02250184  RH  082%=      5-min Rain = 0
KCXS 261610Z 16013G18KT 23/18 A3002 RMK A01 T02250184  RH  082%=      5-min Rain = 0
KCXS 261615Z 16012G18KT 23/19 A3001 RMK A01 T02280185  RH  081%=      5-min Rain = 0
KCXS 261620Z 17014KT 23/18 A3001 RMK A01 T02290184  RH  080%=      5-min Rain = 0
KCXS 261625Z 17013KT 23/18 A3001 RMK A01 T02280183  RH  080%=      5-min Rain = 0
KCXS 261630Z 16012KT 23/19 A3001 RMK A01 T02300185  RH  080%=      5-min Rain = 0
KCXS 261635Z 16014KT 23/18 A3001 RMK A01 T02310183  RH  078%=      5-min Rain = 0
KCXS 261640Z 16012KT 23/18 A3001 RMK A01 T02320184  RH  079%=      5-min Rain = 0
KCXS 261645Z 16014KT 23/18 A3001 RMK A01 T02330183  RH  078%=      5-min Rain = 0
KCXS 261650Z 16013KT 23/18 A30 RMK A01 T02340183  RH  077%=      5-min Rain = 0
KCXS 261655Z 16013G18KT 24/19 A30 RMK A01 T02380185  RH  076%=      5-min Rain = 0
KCXS 261700Z 16014G20KT 24/19 A30 RMK A01 T02400185  RH  075%=      5-min Rain = 0
KCXS 261705Z 16016KT 24/18 A30 RMK A01 T02400183  RH  075%=      5-min Rain = 0.01
KCXS 261710Z 17013KT 24/18 A30 RMK A01 T02360184  RH  076%=      5-min Rain = 0
KCXS 261715Z 17013KT 24/18 A30 RMK A01 T02360183  RH  076%=      5-min Rain = 0
KCXS 261720Z 16014KT 24/18 A30 RMK A01 T02370183  RH  076%=      5-min Rain = 0
KCXS 261725Z 16014G19KT 24/18 A30 RMK A01 T02380183  RH  075%=      5-min Rain = 0
KCXS 261730Z 16014KT 24/18 A30 RMK A01 T02410184  RH  075%=      5-min Rain = 0
KCXS 261735Z 16012G17KT 24/19 A30 RMK A01 T02430187  RH  075%=      5-min Rain = 0
KCXS 261740Z 16014G19KT 24/19 A30 RMK A01 T02440185  RH  073%=      5-min Rain = 0
KCXS 261745Z 15016KT 25/18 A30 RMK A01 T02450184  RH  073%=      5-min Rain = 0
KCXS 261750Z 16015G20KT 24/18 A30 RMK A01 T02420182  RH  073%=      5-min Rain = 0
KCXS 261755Z 16014G19KT 24/18 A3001 RMK A01 T02400183  RH  074%=      5-min Rain = 0
KCXS 261800Z 16014G19KT 24/18 A3001 RMK A01 T02400182  RH  074%=      5-min Rain = 0
KCXS 261805Z 16013KT 24/18 A30 RMK A01 T02420184  RH  074%=      5-min Rain = 0
KCXS 261810Z 16014KT 24/18 A30 RMK A01 T02400182  RH  074%=      5-min Rain = 0
KCXS 261815Z 16014KT 24/18 A30 RMK A01 T02390182  RH  074%=      5-min Rain = 0
KCXS 261820Z 16014KT 24/18 A30 RMK A01 T02390182  RH  074%=      5-min Rain = 0
KCXS 261825Z 16011G17KT 24/18 A3001 RMK A01 T02390183  RH  075%=      5-min Rain = 0
KCXS 261830Z 16011KT 24/18 A30 RMK A01 T02390183  RH  075%=      5-min Rain = 0
KCXS 261835Z 16010KT 24/19 A30 RMK A01 T02400185  RH  075%=      5-min Rain = 0
KCXS 261840Z 16011KT 24/19 A30 RMK A01 T02420186  RH  075%=      5-min Rain = 0
KCXS 261845Z 16012KT 24/18 A30 RMK A01 T02420183  RH  074%=      5-min Rain = 0
KCXS 261850Z 16012KT 24/18 A30 RMK A01 T02420184  RH  074%=      5-min Rain = 0
KCXS 261855Z 16011KT 24/18 A2999 RMK A01 T02420184  RH  074%=      5-min Rain = 0
KCXS 261900Z 15012KT 24/19 A2999 RMK A01 T02430185  RH  074%=      5-min Rain = 0
KCXS 261905Z 16011KT 24/19 A2999 RMK A01 T02430185  RH  074%=      5-min Rain = 0
KCXS 261910Z 16012KT 24/19 A2999 RMK A01 T02430185  RH  074%=      5-min Rain = 0
KCXS 261915Z 15011KT 24/19 A2998 RMK A01 T02430186  RH  074%=      5-min Rain = 0
KCXS 261920Z 16012KT 24/18 A2998 RMK A01 T02430184  RH  074%=      5-min Rain = 0
KCXS 261925Z 15010KT 24/19 A2998 RMK A01 T02440187  RH  075%=      5-min Rain = 0
KCXS 261930Z 15010KT 24/19 A2998 RMK A01 T02440188  RH  075%=      5-min Rain = 0
KCXS 261935Z 15011KT 25/19 A2998 RMK A01 T02450187  RH  074%=      5-min Rain = 0
KCXS 261940Z 16011KT 25/19 A2998 RMK A01 T02460188  RH  074%=      5-min Rain = 0
KCXS 261945Z 15010KT 25/19 A2998 RMK A01 T02470189  RH  075%=      5-min Rain = 0
KCXS 261950Z 15011G16KT 25/19 A2998 RMK A01 T02460189  RH  075%=      5-min Rain = 0
KCXS 261955Z 15011KT 25/19 A2997 RMK A01 T02460189  RH  074%=      5-min Rain = 0
KCXS 262000Z 15011KT 25/19 A2997 RMK A01 T02470190  RH  075%=      5-min Rain = 0
KCXS 262005Z 15010KT 25/19 A2997 RMK A01 T02480192  RH  075%=      5-min Rain = 0
KCXS 262010Z 16011G16KT 25/19 A2997 RMK A01 T02470191  RH  075%=      5-min Rain = 0
KCXS 262015Z 15012G18KT 25/19 A2997 RMK A01 T02470191  RH  075%=      5-min Rain = 0
KCXS 262020Z 16013KT 25/19 A2997 RMK A01 T02490189  RH  074%=      5-min Rain = 0
KCXS 262025Z 16012KT 25/19 A2997 RMK A01 T02490191  RH  074%=      5-min Rain = 0
KCXS 262030Z 17011KT 25/19 A2997 RMK A01 T02490191  RH  074%=      5-min Rain = 0
KCXS 262035Z 17012G17KT 25/19 A2997 RMK A01 T02480191  RH  074%=      5-min Rain = 0
KCXS 262040Z 17011G16KT 25/19 A2997 RMK A01 T02480191  RH  075%=      5-min Rain = 0
KCXS 262045Z 17012KT 25/19 A2997 RMK A01 T02470189  RH  074%=      5-min Rain = 0
KCXS 262050Z 17013KT 25/19 A2997 RMK A01 T02470189  RH  074%=      5-min Rain = 0
KCXS 262055Z 17011KT 25/19 A2997 RMK A01 T02470190  RH  074%=      5-min Rain = 0
KCXS 262100Z 17012G17KT 25/19 A2996 RMK A01 T02470189  RH  074%=      5-min Rain = 0
KCXS 262105Z 17010KT 25/19 A2996 RMK A01 T02470190  RH  074%=      5-min Rain = 0
KCXS 262110Z 18010KT 25/19 A2996 RMK A01 T02470190  RH  075%=      5-min Rain = 0
KCXS 262115Z 18009KT 25/19 A2996 RMK A01 T02460191  RH  076%=      5-min Rain = 0
KCXS 262120Z 17009KT 25/19 A2996 RMK A01 T02460192  RH  076%=      5-min Rain = 0
KCXS 262125Z 18009KT 25/19 A2996 RMK A01 T02470193  RH  076%=      5-min Rain = 0
KCXS 262130Z 18009KT 25/19 A2996 RMK A01 T02480193  RH  076%=      5-min Rain = 0
KCXS 262135Z 18008KT 25/19 A2996 RMK A01 T02490194  RH  075%=      5-min Rain = 0
KCXS 262140Z 19007KT 25/19 A2996 RMK A01 T02490194  RH  076%=      5-min Rain = 0
KCXS 262145Z 19007KT 25/20 A2995 RMK A01 T02470195  RH  077%=      5-min Rain = 0
KCXS 262150Z 18008KT 24/20 A2995 RMK A01 T02440196  RH  079%=      5-min Rain = 0
KCXS 262155Z 18009KT 24/20 A2995 RMK A01 T02430197  RH  080%=      5-min Rain = 0
KCXS 262200Z 18009KT 24/20 A2995 RMK A01 T02420196  RH  080%=      5-min Rain = 0
KCXS 262205Z 18007KT 24/20 A2995 RMK A01 T02390199  RH  083%=      5-min Rain = 0.01
KCXS 262210Z 18010KT 23/20 A2995 RMK A01 T02330199  RH  086%=      5-min Rain = 0
KCXS 262215Z 18009KT 23/20 A2995 RMK A01 T02300200  RH  088%=      5-min Rain = 0
KCXS 262220Z 18009KT 23/20 A2994 RMK A01 T02310201  RH  088%=      5-min Rain = 0
KCXS 262225Z 17009KT 23/20 A2994 RMK A01 T02330203  RH  088%=      5-min Rain = 0
KCXS 262230Z 16009KT 23/20 A2994 RMK A01 T02340204  RH  088%=      5-min Rain = 0
KCXS 262235Z 17010KT 23/20 A2994 RMK A01 T02340203  RH  088%=      5-min Rain = 0
KCXS 262240Z 17010KT 24/20 A2993 RMK A01 T02350203  RH  088%=      5-min Rain = 0
KCXS 262245Z 17010KT 24/20 A2993 RMK A01 T02360203  RH  086%=      5-min Rain = 0
KCXS 262250Z 16009KT 24/21 A2993 RMK A01 T02380205  RH  087%=      5-min Rain = 0
KCXS 262255Z 16010KT 24/21 A2992 RMK A01 T02390205  RH  086%=      5-min Rain = 0
KCXS 262300Z 15010KT 24/20 A2992 RMK A01 T02400204  RH  085%=      5-min Rain = 0
KCXS 262305Z 15010KT 24/20 A2992 RMK A01 T02400203  RH  085%=      5-min Rain = 0
KCXS 262310Z 15010KT 24/20 A2992 RMK A01 T02400202  RH  084%=      5-min Rain = 0
KCXS 262315Z 16010KT 24/20 A2992 RMK A01 T02410201  RH  083%=      5-min Rain = 0
KCXS 262320Z 15010KT 24/20 A2991 RMK A01 T02420202  RH  083%=      5-min Rain = 0
KCXS 262325Z 15011KT 24/20 A2991 RMK A01 T02420200  RH  082%=      5-min Rain = 0
KCXS 262330Z 14011KT 24/20 A2991 RMK A01 T02420200  RH  082%=      5-min Rain = 0
KCXS 262335Z 15012G17KT 24/20 A299 RMK A01 T02420199  RH  082%=      5-min Rain = 0
KCXS 262340Z 15013KT 24/20 A299 RMK A01 T02430197  RH  080%=      5-min Rain = 0
KCXS 262345Z 15013G18KT 24/20 A2989 RMK A01 T02430197  RH  080%=      5-min Rain = 0
KCXS 262350Z 14013KT 24/20 A2989 RMK A01 T02420197  RH  080%=      5-min Rain = 0
KCXS 262355Z 14013G20KT 24/20 A2989 RMK A01 T02420197  RH  080%=      5-min Rain = 0
KCXS 270000Z 15012KT 24/20 A2989 RMK A01 T02420197  RH  080%=      5-min Rain = 0
KCXS 270005Z 14014G20KT 24/20 A2988 RMK A01 T02420196  RH  080%=      5-min Rain = 0
KCXS 270010Z 14013KT 24/20 A2988 RMK A01 T02420196  RH  080%=      5-min Rain = 0
KCXS 270015Z 15013KT 24/20 A2987 RMK A01 T02430196  RH  080%=      5-min Rain = 0
KCXS 270020Z 14012KT 24/20 A2987 RMK A01 T02440197  RH  080%=      5-min Rain = 0
KCXS 270025Z 14011KT 24/20 A2987 RMK A01 T02440197  RH  080%=      5-min Rain = 0
KCXS 270030Z 15012KT 24/20 A2987 RMK A01 T02430196  RH  079%=      5-min Rain = 0
KCXS 270035Z 15012KT 24/20 A2986 RMK A01 T02420196  RH  080%=      5-min Rain = 0
KCXS 270040Z 15012KT 24/20 A2986 RMK A01 T02420195  RH  080%=      5-min Rain = 0
KCXS 270045Z 14013KT 24/20 A2986 RMK A01 T02420195  RH  079%=      5-min Rain = 0
KCXS 270050Z 15012KT 24/20 A2986 RMK A01 T02420195  RH  079%=      5-min Rain = 0
KCXS 270055Z 14012KT 24/20 A2986 RMK A01 T02420196  RH  080%=      5-min Rain = 0
KCXS 270100Z 14013KT 24/20 A2985 RMK A01 T02420197  RH  080%=      5-min Rain = 0
KCXS 270105Z 14014KT 24/20 A2985 RMK A01 T02420197  RH  080%=      5-min Rain = 0
KCXS 270110Z 14014KT 24/20 A2984 RMK A01 T02430197  RH  080%=      5-min Rain = 0
KCXS 270115Z 13015G20KT 24/20 A2983 RMK A01 T02420197  RH  080%=      5-min Rain = 0
KCXS 270120Z 13016KT 24/20 A2982 RMK A01 T02400196  RH  081%=      5-min Rain = 0
KCXS 270125Z 13016KT 24/20 A2982 RMK A01 T02380195  RH  081%=      5-min Rain = 0
KCXS 270130Z 13015KT 24/19 A2982 RMK A01 T02370194  RH  081%=      5-min Rain = 0
KCXS 270135Z 13015KT 24/19 A2982 RMK A01 T02350193  RH  082%=      5-min Rain = 0
KCXS 270140Z 14017G22KT 24/19 A2981 RMK A01 T02350192  RH  081%=      5-min Rain = 0
KCXS 270145Z 13016KT 24/19 A2981 RMK A01 T02360192  RH  081%=      5-min Rain = 0
KCXS 270150Z 13015G20KT 24/19 A2981 RMK A01 T02350191  RH  081%=      5-min Rain = 0
KCXS 270155Z 14015KT 24/19 A2981 RMK A01 T02350190  RH  080%=      5-min Rain = 0
KCXS 270200Z 14012KT 24/19 A2982 RMK A01 T02350189  RH  080%=      5-min Rain = 0
KCXS 270205Z 16011KT 23/19 A2984 RMK A01 T02340189  RH  080%=      5-min Rain = 0
KCXS 270210Z 15011KT 23/19 A2984 RMK A01 T02330189  RH  081%=      5-min Rain = 0
KCXS 270215Z 15010KT 23/19 A2984 RMK A01 T02330188  RH  080%=      5-min Rain = 0
KCXS 270220Z 15011KT 23/19 A2985 RMK A01 T02320188  RH  080%=      5-min Rain = 0
KCXS 270225Z 15011KT 23/19 A2985 RMK A01 T02310188  RH  081%=      5-min Rain = 0
KCXS 270230Z 15011KT 23/19 A2985 RMK A01 T02300187  RH  081%=      5-min Rain = 0
KCXS 270235Z 16011KT 23/19 A2985 RMK A01 T02290187  RH  081%=      5-min Rain = 0
KCXS 270240Z 16010KT 23/19 A2986 RMK A01 T02280187  RH  082%=      5-min Rain = 0
KCXS 270245Z 16010KT 23/19 A2986 RMK A01 T02280186  RH  082%=      5-min Rain = 0
KCXS 270250Z 16010KT 23/19 A2987 RMK A01 T02280186  RH  082%=      5-min Rain = 0
KCXS 270255Z 16010KT 23/19 A2987 RMK A01 T02280186  RH  082%=      5-min Rain = 0
KCXS 270300Z 16011KT 23/19 A2987 RMK A01 T02280186  RH  082%=      5-min Rain = 0
KCXS 270305Z 16010KT 23/19 A2988 RMK A01 T02280187  RH  082%=      5-min Rain = 0
KCXS 270310Z 16010KT 23/19 A2988 RMK A01 T02270187  RH  082%=      5-min Rain = 0
KCXS 270315Z 15010KT 23/19 A2988 RMK A01 T02260186  RH  082%=      5-min Rain = 0
KCXS 270320Z 15010KT 23/19 A2988 RMK A01 T02250186  RH  083%=      5-min Rain = 0
KCXS 270325Z 15011KT 23/19 A2987 RMK A01 T02250186  RH  083%=      5-min Rain = 0
KCXS 270330Z 15010KT 23/19 A2988 RMK A01 T02250186  RH  083%=      5-min Rain = 0
KCXS 270335Z 15011KT 23/19 A2987 RMK A01 T02250186  RH  083%=      5-min Rain = 0
KCXS 270340Z 14011KT 22/19 A2987 RMK A01 T02240185  RH  083%=      5-min Rain = 0
KCXS 270345Z 14011KT 22/19 A2986 RMK A01 T02230185  RH  084%=      5-min Rain = 0
KCXS 270350Z 14010KT 22/19 A2987 RMK A01 T02230185  RH  084%=      5-min Rain = 0
KCXS 270355Z 14009KT 22/19 A2987 RMK A01 T02220185  RH  084%=      5-min Rain = 0
KCXS 270400Z 14010KT 22/19 A2987 RMK A01 T02220185  RH  084%=      5-min Rain = 0
KCXS 270405Z 14012KT 22/19 A2987 RMK A01 T02210185  RH  084%=      5-min Rain = 0
KCXS 270410Z 14011KT 22/19 A2987 RMK A01 T02220185  RH  084%=      5-min Rain = 0
KCXS 270415Z 14010KT 22/19 A2987 RMK A01 T02210185  RH  084%=      5-min Rain = 0
KCXS 270420Z 14010KT 22/18 A2987 RMK A01 T02200184  RH  085%=      5-min Rain = 0
KCXS 270425Z 14010KT 22/18 A2987 RMK A01 T02180184  RH  085%=      5-min Rain = 0
KCXS 270430Z 13010KT 22/18 A2987 RMK A01 T02170184  RH  086%=      5-min Rain = 0
KCXS 270435Z 13011KT 22/18 A2986 RMK A01 T02150184  RH  087%=      5-min Rain = 0
KCXS 270440Z 13012KT 22/18 A2986 RMK A01 T02150183  RH  087%=      5-min Rain = 0
KCXS 270445Z 13013KT 21/18 A2985 RMK A01 T02140183  RH  087%=      5-min Rain = 0
KCXS 270450Z 13013KT 21/18 A2984 RMK A01 T02140183  RH  087%=      5-min Rain = 0
KCXS 270455Z 14012KT 21/18 A2985 RMK A01 T02140183  RH  087%=      5-min Rain = 0

Page generated in 0.0092 seconds.